Airfield :
LOGIN :

Register | Disclaimer

   EN    FR    IT 

 










Legend :    VFR   Marginal VFR   IFR   Intensive IFR   Very Intensive IFR
Visi :
Ceiling :
>= 8 km
>= 3000ft
5 to 8 km
1000 to 3000 ft
1500m to 5 km
500 to 1000 ft
800 to 1500m
200 to 500 ft
< 800m
< 200 ft
Symbols :   Thunderstorms  Fog  Heavy snow  Heavy precipitations  Wind > 20 kt
SIGMETs :     Misc.  Thunderstorms  Icing  Turbulence  Mountain Waves  Volcanic Ashes







- Airport Elevation : 2265 ft
- IATA code : CZL


DABC - Mohamed Boudiaf Int. Constantine

CURRENT METAR :
  • 231430Z 15008KT 9999 FEW026TCU SCT030 BKN033 26/10 Q1018

EXPIRED METARs :
  • 231400Z 15003KT 9999 FEW026TCU SCT030 BKN033 26/10 Q1020
  • 231330Z 09003KT 9999 FEW026TCU SCT030 BKN033 25/10 Q1020
  • 231300Z VRB02KT 9999 FEW026CB SCT030 BKN033 25/10 Q1020
  • 231230Z VRB02KT 9999 FEW026CB SCT030 BKN033 25/11 Q1020
  • 231200Z 05006KT 020V090 9999 FEW026CB SCT030 BKN033 25/10 Q1020

TAF TAF DABC
Valid from the 23 at 12:00 until the 24 at 12:00 UTC


231100Z 2312/2412 34014KT 9999 FEW026CB SCT030 BKN100
TEMPO 2312/2320 32015G25KT 5000 TSRA
BECMG 2322/2324 VRB02KT FEW030
No reported NOTAMs for that airfield.
2 SIGMETs reported for the Alger FIR (DAAA) :
 
Embedded thunderstorms
DAAA SIGMET 1 VALID 231130/231530 DAMM
DAAA ALGIERS FIR ISOL EMBD TS OBS WI N3721 E00302 - N3716 E00524 - N3759 E00635 - N3644 E00805 - N3417 E00335 - N3547 E00212- N3721 E00302 TOP FL360 MOV E NC=
Embedded thunderstorms
COR DAAA SIGMET 2 VALID 231130/231530 DAMM
DAAA ALGIERS FIR ISOL EMBD TS OBS WI N3721 E00302 - N3716 E00524 - N3759 E00635 - N3644 E00805 - N3417 E00335 - N3547 E00212- N3721 E00302 TOP FL360 MOV E NC=



MET'MAP, your aeronautical weather chart ! - Copyright ORBIFLY December 2007 - Disclaimer

ORBIFLY MET'MAP TEAM :

Programming & Development : Alexandra Zaïnal
Concept & Development : Baudouin d'Aumeries
Co-Development & Prog : Marc-Olivier Méhu
Technical & hardware support : Manuel Goepfert

Contact : metmap@orbifly.com




SOURCES & CREDITS :

   NOAA